Time;durP1;ratioP1;P1;durP2;ratioP2;P2;SDS_P1;SDS_P2;PMS_P1;PMS_P2;Temp;Humidity;BMP_temperature;BMP_pressure;BME280_temperature;BME280_humidity;BME280_pressure;Samples;Min_cycle;Max_cycle;Signal;HPM_P1;HPM_P2
2022/01/04 00:01:04;;;;;;;10.55;6.25;;;;;;;7.90;100.00;100161.28;4924805;29;20038;-75
2022/01/04 00:03:30;;;;;;;8.85;5.95;;;;;;;7.84;100.00;100159.97;4928134;29;20035;-76
2022/01/04 00:05:55;;;;;;;7.43;5.20;;;;;;;7.91;100.00;100150.50;4913135;29;20110;-75
2022/01/04 00:08:20;;;;;;;7.93;5.57;;;;;;;7.97;100.00;100157.19;4926715;29;20055;-74
2022/01/04 00:10:46;;;;;;;7.70;5.30;;;;;;;7.95;100.00;100140.41;4914498;29;20102;-74
2022/01/04 00:13:24;;;;;;;13.05;5.50;;;;;;;7.93;100.00;100132.53;4929847;29;20472;-74
2022/01/04 00:15:53;;;;;;;13.90;5.15;;;;;;;7.89;100.00;100133.72;4913069;29;20301;-74
2022/01/04 00:18:19;;;;;;;12.23;7.13;;;;;;;8.04;100.00;100125.47;4905901;29;21189;-74
2022/01/04 00:20:45;;;;;;;10.20;6.72;;;;;;;7.98;100.00;100120.59;4907569;29;20034;-75
2022/01/04 00:23:11;;;;;;;10.00;5.70;;;;;;;7.93;100.00;100126.31;4920273;29;20120;-74
2022/01/04 00:25:36;;;;;;;7.43;5.50;;;;;;;7.96;100.00;100121.56;4907617;29;20031;-74
2022/01/04 00:28:06;;;;;;;8.68;5.72;;;;;;;8.04;100.00;100120.13;4908553;29;20032;-73
2022/01/04 00:30:32;;;;;;;9.50;6.18;;;;;;;8.02;100.00;100109.56;4910566;29;20036;-73
2022/01/04 00:32:57;;;;;;;8.52;6.50;;;;;;;7.99;100.00;100112.47;4904877;29;20083;-73
2022/01/04 00:35:22;;;;;;;9.60;6.15;;;;;;;7.80;100.00;100086.34;4906369;29;20562;-74
2022/01/04 00:37:48;;;;;;;8.93;6.00;;;;;;;7.92;100.00;100085.38;4898408;29;20482;-74
2022/01/04 00:40:13;;;;;;;14.65;6.13;;;;;;;7.89;100.00;100072.25;4918087;29;20038;-74
2022/01/04 00:42:39;;;;;;;9.48;5.72;;;;;;;7.85;100.00;100073.47;4919006;29;20067;-76
2022/01/04 00:45:05;;;;;;;10.10;7.13;;;;;;;7.92;100.00;100074.69;4900215;29;20403;-74
2022/01/04 00:47:43;;;;;;;8.77;5.90;;;;;;;7.81;100.00;100063.97;4911825;29;20035;-74
2022/01/04 00:50:08;;;;;;;13.82;6.07;;;;;;;7.73;100.00;100053.91;4915268;29;20030;-75
2022/01/04 00:52:33;;;;;;;9.32;5.47;;;;;;;7.65;100.00;100057.19;4925339;29;20491;-75
2022/01/04 00:54:59;;;;;;;9.00;5.95;;;;;;;7.68;100.00;100045.41;4905833;29;20375;-74
2022/01/04 00:57:24;;;;;;;12.60;7.63;;;;;;;7.85;100.00;100038.72;4924290;29;20070;-73
2022/01/04 00:59:49;;;;;;;12.13;6.55;;;;;;;7.70;100.00;100040.78;4906870;29;20366;-74
2022/01/04 01:02:14;;;;;;;11.55;6.88;;;;;;;7.74;100.00;100046.72;4892302;29;20127;-74
2022/01/04 01:04:40;;;;;;;13.38;7.70;;;;;;;7.80;100.00;100028.41;4925678;29;20459;-75
2022/01/04 01:07:05;;;;;;;10.90;6.57;;;;;;;7.75;100.00;100043.09;4905321;29;20032;-76
2022/01/04 01:09:35;;;;;;;12.95;7.28;;;;;;;7.64;100.00;100020.75;4911958;29;20078;-75
2022/01/04 01:12:00;;;;;;;8.57;6.22;;;;;;;7.70;100.00;100021.22;4915925;29;20479;-76
2022/01/04 01:14:26;;;;;;;8.02;5.40;;;;;;;7.62;100.00;100035.19;4909549;29;20035;-77
2022/01/04 01:16:51;;;;;;;13.18;6.43;;;;;;;7.62;100.00;100017.34;4904713;29;20123;-74
2022/01/04 01:19:16;;;;;;;11.38;6.40;;;;;;;7.71;100.00;100023.78;4909546;29;20031;-75
2022/01/04 01:21:42;;;;;;;10.50;5.60;;;;;;;7.61;100.00;100023.66;4892227;29;20046;-75
2022/01/04 01:24:07;;;;;;;12.77;5.82;;;;;;;7.46;100.00;100020.38;4891414;29;20036;-75
2022/01/04 01:26:32;;;;;;;12.93;6.88;;;;;;;7.60;100.00;100021.09;4910893;29;20069;-75
2022/01/04 01:28:58;;;;;;;11.52;5.78;;;;;;;7.62;100.00;100019.16;4909458;29;20063;-74
2022/01/04 01:31:24;;;;;;;12.40;6.45;;;;;;;7.52;100.00;100010.19;4907686;29;20031;-75
2022/01/04 01:33:49;;;;;;;9.02;5.57;;;;;;;7.70;100.00;100008.72;4912011;29;20066;-75
2022/01/04 01:36:15;;;;;;;10.85;6.30;;;;;;;7.62;100.00;100006.66;4889789;29;20135;-75
2022/01/04 01:38:40;;;;;;;10.70;5.28;;;;;;;7.39;100.00;100007.63;4906582;29;20079;-77
2022/01/04 01:41:05;;;;;;;8.43;5.20;;;;;;;7.50;100.00;100007.59;4908213;29;20031;-75
2022/01/04 01:43:31;;;;;;;10.48;6.07;;;;;;;7.44;100.00;99998.25;4913741;29;20039;-74
2022/01/04 01:45:57;;;;;;;11.27;5.93;;;;;;;7.59;100.00;99996.22;4906665;29;20070;-76
2022/01/04 01:48:23;;;;;;;13.07;5.57;;;;;;;7.48;100.00;99999.72;4910847;29;20066;-75
2022/01/04 01:50:48;;;;;;;10.05;5.30;;;;;;;7.42;100.00;99986.84;4923419;29;20118;-74
2022/01/04 01:53:15;;;;;;;13.38;5.88;;;;;;;7.42;100.00;99975.28;4906606;29;20389;-75
2022/01/04 01:55:40;;;;;;;7.25;5.70;;;;;;;7.41;100.00;99979.81;4907279;29;20764;-75
2022/01/04 01:58:05;;;;;;;9.35;5.43;;;;;;;7.38;100.00;99990.72;4904376;29;20051;-75
2022/01/04 02:00:31;;;;;;;8.90;5.60;;;;;;;7.45;100.00;99978.59;4891129;29;20035;-74
2022/01/04 02:02:57;;;;;;;10.75;5.82;;;;;;;7.52;100.00;99984.31;4923637;29;20028;-74
2022/01/04 02:05:23;;;;;;;9.75;6.90;;;;;;;7.56;100.00;99967.06;4890351;29;20044;-75
2022/01/04 02:07:48;;;;;;;11.52;5.45;;;;;;;7.73;100.00;99973.75;4908211;29;20031;-75
2022/01/04 02:10:14;;;;;;;13.40;6.85;;;;;;;7.52;100.00;99975.44;4930225;29;20039;-75
2022/01/04 02:12:46;;;;;;;10.27;6.38;;;;;;;7.67;100.00;99976.91;4915414;29;20035;-75
2022/01/04 02:15:14;;;;;;;10.75;5.63;;;;;;;7.57;100.00;99971.44;4905980;29;20400;-75
2022/01/04 02:17:39;;;;;;;11.50;6.78;;;;;;;7.53;100.00;99956.63;4893214;29;20539;-75
2022/01/04 02:20:06;;;;;;;10.13;6.55;;;;;;;7.50;100.00;99955.06;4907187;29;20067;-75
2022/01/04 02:22:32;;;;;;;14.45;9.15;;;;;;;7.92;100.00;99961.56;4911889;29;20032;-74
2022/01/04 02:24:57;;;;;;;18.15;8.63;;;;;;;7.70;100.00;99951.75;4902218;29;20404;-74
2022/01/04 02:27:23;;;;;;;13.65;7.05;;;;;;;7.60;100.00;99946.28;4907984;29;20031;-75
2022/01/04 02:29:49;;;;;;;12.05;5.60;;;;;;;7.41;100.00;99938.91;4908973;29;20122;-75
2022/01/04 02:32:15;;;;;;;19.63;8.10;;;;;;;7.39;100.00;99935.50;4882859;29;20043;-75
2022/01/04 02:34:41;;;;;;;15.55;8.65;;;;;;;7.50;100.00;99931.00;4909585;29;20079;-74
2022/01/04 02:37:07;;;;;;;15.43;8.70;;;;;;;7.47;100.00;99928.59;4905773;29;20039;-75
2022/01/04 02:39:38;;;;;;;16.17;6.72;;;;;;;7.38;100.00;99926.63;4924002;29;20498;-74
2022/01/04 02:42:04;;;;;;;10.50;5.95;;;;;;;7.56;100.00;99935.00;4893546;29;20492;-74
2022/01/04 02:44:30;;;;;;;11.20;6.55;;;;;;;7.30;100.00;99924.56;4904227;29;20040;-74
2022/01/04 02:46:55;;;;;;;11.52;6.68;;;;;;;7.17;100.00;99918.47;4911723;29;20421;-75
2022/01/04 02:49:21;;;;;;;12.10;6.40;;;;;;;7.24;100.00;99913.53;4908679;29;20040;-74
2022/01/04 02:51:46;;;;;;;15.93;6.55;;;;;;;7.33;100.00;99928.81;4905271;29;20043;-75
2022/01/04 02:54:11;;;;;;;11.38;7.63;;;;;;;7.38;100.00;99921.28;4886518;29;20563;-75
2022/01/04 02:56:36;;;;;;;12.45;6.88;;;;;;;7.47;100.00;99911.69;4904488;29;20149;-74
2022/01/04 02:59:04;;;;;;;12.70;6.47;;;;;;;7.38;100.00;99913.28;4902085;29;20450;-74
2022/01/04 03:01:30;;;;;;;12.02;6.30;;;;;;;7.33;100.00;99920.78;4894201;29;20031;-74
2022/01/04 03:03:55;;;;;;;12.77;6.88;;;;;;;7.16;100.00;99908.78;4903991;29;20395;-75
2022/01/04 03:06:20;;;;;;;12.40;6.72;;;;;;;7.12;100.00;99902.00;4906649;29;20032;-75
2022/01/04 03:08:46;;;;;;;12.05;7.05;;;;;;;7.17;100.00;99905.13;4891609;29;20154;-75
2022/01/04 03:11:11;;;;;;;15.50;7.75;;;;;;;7.28;100.00;99898.97;4904380;29;20055;-75
2022/01/04 03:13:36;;;;;;;18.98;7.75;;;;;;;7.32;100.00;99885.25;4887919;29;20536;-75
2022/01/04 03:16:02;;;;;;;12.32;6.60;;;;;;;7.29;100.00;99879.28;4899979;29;20039;-74
2022/01/04 03:18:27;;;;;;;16.02;8.38;;;;;;;7.40;100.00;99894.47;4928530;29;20484;-74
2022/01/04 03:20:52;;;;;;;15.85;7.68;;;;;;;7.41;100.00;99883.66;4900643;29;20046;-76
2022/01/04 03:23:18;;;;;;;13.68;7.45;;;;;;;7.31;100.00;99872.88;4894037;29;20039;-74
2022/01/04 03:25:43;;;;;;;19.33;8.27;;;;;;;7.25;100.00;99864.50;4922407;29;20059;-74
2022/01/04 03:28:08;;;;;;;15.15;8.73;;;;;;;7.54;100.00;99872.84;4909543;29;20062;-75
2022/01/04 03:30:34;;;;;;;15.02;8.38;;;;;;;7.47;100.00;99858.28;4906917;29;21108;-74
2022/01/04 03:33:00;;;;;;;11.88;6.10;;;;;;;7.30;100.00;99855.16;4905832;29;20043;-74
2022/01/04 03:35:26;;;;;;;13.32;6.93;;;;;;;7.26;100.00;99842.16;4907224;29;20467;-75
2022/01/04 03:37:51;;;;;;;14.70;7.88;;;;;;;7.36;100.00;99843.13;4904983;29;20480;-74
2022/01/04 03:40:17;;;;;;;10.13;6.55;;;;;;;7.26;100.00;99836.84;4926114;29;20094;-74
2022/01/04 03:42:42;;;;;;;17.05;8.02;;;;;;;7.47;100.00;99831.56;4902152;29;20346;-74
2022/01/04 03:45:08;;;;;;;15.48;7.22;;;;;;;7.33;100.00;99825.53;4900264;29;20468;-74
2022/01/04 03:47:34;;;;;;;12.55;6.20;;;;;;;7.31;100.00;99810.59;4921523;29;20157;-75
2022/01/04 03:49:59;;;;;;;14.27;7.40;;;;;;;7.30;100.00;99809.75;4912262;29;20032;-74
2022/01/04 03:52:25;;;;;;;12.57;6.70;;;;;;;7.24;100.00;99793.38;4902782;29;20346;-74
2022/01/04 03:54:50;;;;;;;16.15;8.63;;;;;;;7.23;100.00;99792.53;4924943;29;20115;-74
2022/01/04 03:57:16;;;;;;;18.95;7.78;;;;;;;7.30;100.00;99795.53;4927891;29;20070;-75
2022/01/04 03:59:41;;;;;;;18.70;9.27;;;;;;;7.29;100.00;99793.84;4924099;29;20427;-74
2022/01/04 04:02:07;;;;;;;17.63;8.77;;;;;;;7.08;100.00;99788.44;4902863;29;20067;-75
2022/01/04 04:04:32;;;;;;;10.38;6.45;;;;;;;7.17;100.00;99783.19;4905234;29;20039;-74
2022/01/04 04:06:57;;;;;;;17.35;9.32;;;;;;;7.19;100.00;99761.69;4906404;29;20057;-74
2022/01/04 04:09:22;;;;;;;22.17;10.38;;;;;;;7.39;100.00;99765.44;4905765;29;20035;-75
2022/01/04 04:11:48;;;;;;;18.65;9.20;;;;;;;7.42;100.00;99759.84;4907511;29;20082;-75
2022/01/04 04:14:13;;;;;;;15.02;7.38;;;;;;;7.11;100.00;99766.84;4899650;29;20640;-75
2022/01/04 04:16:39;;;;;;;12.75;6.65;;;;;;;7.13;100.00;99757.72;4903526;29;20042;-75
2022/01/04 04:19:04;;;;;;;18.88;9.10;;;;;;;7.11;100.00;99751.66;4921205;29;20062;-76
2022/01/04 04:21:29;;;;;;;16.20;7.25;;;;;;;7.31;100.00;99750.03;4893197;29;20234;-76
2022/01/04 04:23:55;;;;;;;16.52;7.28;;;;;;;7.11;100.00;99743.63;4894017;29;20035;-75
2022/01/04 04:26:20;;;;;;;17.55;7.85;;;;;;;7.02;100.00;99739.91;4891274;29;20082;-75
2022/01/04 04:28:45;;;;;;;16.05;9.65;;;;;;;7.40;100.00;99731.56;4911082;29;20451;-74
2022/01/04 04:31:11;;;;;;;15.50;7.80;;;;;;;7.21;100.00;99719.72;4894220;29;20384;-75
2022/01/04 04:33:36;;;;;;;15.70;7.95;;;;;;;7.08;100.00;99729.72;4907881;29;20028;-75
2022/01/04 04:36:01;;;;;;;15.90;6.93;;;;;;;7.12;100.00;99740.00;4913475;29;20130;-75
2022/01/04 04:38:27;;;;;;;12.73;7.07;;;;;;;7.16;100.00;99738.78;4910520;29;20139;-74
2022/01/04 04:40:52;;;;;;;14.18;6.88;;;;;;;7.06;100.00;99724.47;4912374;29;20039;-75
2022/01/04 04:43:18;;;;;;;10.90;7.15;;;;;;;7.12;100.00;99734.66;4894914;29;20089;-75
2022/01/04 04:45:43;;;;;;;15.65;8.15;;;;;;;7.30;100.00;99732.31;4908746;29;20174;-75
2022/01/04 04:48:08;;;;;;;15.57;7.90;;;;;;;7.26;100.00;99736.22;4923178;29;20035;-74
2022/01/04 04:50:34;;;;;;;13.15;7.38;;;;;;;7.08;100.00;99735.03;4909279;29;20110;-75
2022/01/04 04:53:00;;;;;;;17.27;7.85;;;;;;;7.26;100.00;99724.69;4895628;29;20051;-74
2022/01/04 04:55:25;;;;;;;17.98;8.13;;;;;;;7.17;100.00;99724.47;4908460;29;20035;-75
2022/01/04 04:57:50;;;;;;;14.00;6.43;;;;;;;7.10;100.00;99725.09;4908539;29;20035;-75
2022/01/04 05:00:16;;;;;;;17.70;9.57;;;;;;;7.08;100.00;99724.38;4905105;29;20127;-73
2022/01/04 05:02:42;;;;;;;19.98;8.43;;;;;;;7.02;100.00;99729.22;4908931;29;20032;-74
2022/01/04 05:05:07;;;;;;;15.27;7.88;;;;;;;7.07;100.00;99734.19;4926608;29;20039;-75
2022/01/04 05:07:34;;;;;;;17.13;8.93;;;;;;;7.07;100.00;99725.34;4907472;29;20421;-73
2022/01/04 05:10:00;;;;;;;15.25;8.88;;;;;;;7.26;100.00;99716.69;4906667;29;20499;-74
2022/01/04 05:12:25;;;;;;;14.75;7.50;;;;;;;7.06;100.00;99719.13;4911821;29;20036;-74
2022/01/04 05:14:50;;;;;;;18.83;11.63;;;;;;;7.34;100.00;99709.75;4923522;29;20439;-74
2022/01/04 05:17:16;;;;;;;13.20;7.20;;;;;;;7.18;100.00;99718.16;4905168;29;20078;-75
2022/01/04 05:19:41;;;;;;;15.93;7.75;;;;;;;7.00;100.00;99720.50;4894455;29;20035;-74
2022/01/04 05:22:07;;;;;;;22.80;9.38;;;;;;;6.94;100.00;99714.81;4906526;29;20046;-75
2022/01/04 05:24:32;;;;;;;16.73;8.55;;;;;;;6.85;100.00;99701.22;4909896;29;20388;-75
2022/01/04 05:26:58;;;;;;;14.55;7.53;;;;;;;7.05;100.00;99709.44;4907430;29;20043;-75
2022/01/04 05:29:23;;;;;;;15.43;7.00;;;;;;;6.99;100.00;99693.94;4925320;29;20034;-75
2022/01/04 05:31:49;;;;;;;14.18;7.47;;;;;;;6.89;100.00;99689.34;4909386;29;20031;-75
2022/01/04 05:34:14;;;;;;;17.08;8.18;;;;;;;7.02;100.00;99689.19;4906981;29;20112;-75
2022/01/04 05:36:39;;;;;;;19.95;9.57;;;;;;;7.07;100.00;99693.31;4905790;29;20146;-74
2022/01/04 05:39:05;;;;;;;18.33;9.15;;;;;;;7.10;100.00;99693.06;4925286;29;20054;-75
2022/01/04 05:41:31;;;;;;;16.42;8.18;;;;;;;7.18;100.00;99701.28;4913005;29;20031;-76
2022/01/04 05:43:56;;;;;;;18.67;8.75;;;;;;;7.09;100.00;99668.19;4907174;29;20496;-75
2022/01/04 05:46:21;;;;;;;16.08;7.18;;;;;;;6.96;100.00;99654.16;4923556;29;20036;-75
2022/01/04 05:48:47;;;;;;;19.45;7.40;;;;;;;6.96;100.00;99657.66;4918309;29;20084;-74
2022/01/04 05:51:12;;;;;;;16.45;7.35;;;;;;;7.12;100.00;99662.59;4906430;29;20088;-74
2022/01/04 05:53:38;;;;;;;18.98;9.20;;;;;;;7.05;100.00;99672.06;4924964;29;20024;-74
2022/01/04 05:56:03;;;;;;;16.00;8.23;;;;;;;7.00;100.00;99667.13;4922912;29;20035;-74
2022/01/04 05:58:29;;;;;;;20.38;8.63;;;;;;;6.92;100.00;99658.03;4924183;29;20032;-74
2022/01/04 06:00:54;;;;;;;19.08;8.23;;;;;;;6.85;100.00;99657.69;4888300;29;20427;-74
2022/01/04 06:03:19;;;;;;;20.17;8.55;;;;;;;6.90;100.00;99664.34;4909968;29;20063;-75
2022/01/04 06:05:45;;;;;;;19.98;9.90;;;;;;;6.86;100.00;99662.06;4905236;29;20070;-74
2022/01/04 06:08:11;;;;;;;22.52;8.95;;;;;;;6.92;100.00;99674.06;4932732;29;20027;-74
2022/01/04 06:10:40;;;;;;;21.13;9.02;;;;;;;6.90;100.00;99672.34;4920910;29;20066;-73
2022/01/04 06:15:30;;;;;;;17.15;8.13;;;;;;;6.78;100.00;99670.66;4909329;29;20380;-77
2022/01/04 06:17:57;;;;;;;22.77;8.88;;;;;;;6.86;100.00;99657.56;4905452;29;20040;-75
2022/01/04 06:20:23;;;;;;;24.20;10.30;;;;;;;6.95;100.00;99652.47;4909484;29;20028;-74
2022/01/04 06:22:50;;;;;;;17.73;7.65;;;;;;;6.84;100.00;99653.34;4903219;29;20031;-75
2022/01/04 06:25:17;;;;;;;17.80;7.93;;;;;;;6.79;100.00;99650.19;4910804;29;20693;-76
2022/01/04 06:27:48;;;;;;;17.85;9.02;;;;;;;6.77;100.00;99649.47;4885262;29;20060;-74
2022/01/04 06:30:14;;;;;;;21.08;10.32;;;;;;;6.92;100.00;99652.72;4900752;29;20051;-74
2022/01/04 06:32:42;;;;;;;16.38;7.50;;;;;;;6.73;100.00;99644.38;4900005;29;20122;-74
2022/01/04 06:35:07;;;;;;;20.73;9.07;;;;;;;6.77;100.00;99638.78;4884455;29;20052;-74
2022/01/04 06:37:32;;;;;;;19.83;9.88;;;;;;;6.85;100.00;99639.84;4904216;29;20393;-73
2022/01/04 06:39:58;;;;;;;23.35;10.20;;;;;;;6.80;100.00;99657.22;4889752;29;20069;-74
2022/01/04 06:42:23;;;;;;;26.35;10.23;;;;;;;6.85;100.00;99652.38;4890063;29;20031;-74
2022/01/04 06:44:49;;;;;;;26.88;10.70;;;;;;;6.88;100.00;99641.44;4904239;29;20102;-73
2022/01/04 06:47:14;;;;;;;20.40;9.23;;;;;;;6.88;100.00;99658.28;4919228;29;20027;-73
2022/01/04 06:49:40;;;;;;;23.30;8.73;;;;;;;6.84;100.00;99632.00;4901051;29;20135;-73
2022/01/04 06:52:05;;;;;;;19.63;8.43;;;;;;;6.86;100.00;99636.22;4916420;29;20625;-73
2022/01/04 06:54:31;;;;;;;21.90;8.90;;;;;;;6.89;100.00;99629.78;4921569;29;20032;-75
2022/01/04 06:56:56;;;;;;;23.50;9.63;;;;;;;6.82;100.00;99625.94;4902879;29;20126;-73
2022/01/04 06:59:22;;;;;;;25.63;10.98;;;;;;;6.80;100.00;99617.22;4908368;29;20058;-75
2022/01/04 07:01:47;;;;;;;27.38;12.40;;;;;;;6.89;100.00;99630.63;4888091;29;20058;-75
2022/01/04 07:04:13;;;;;;;22.67;9.48;;;;;;;6.99;100.00;99605.88;4891934;29;20032;-74
2022/01/04 07:06:38;;;;;;;22.83;9.35;;;;;;;6.87;100.00;99603.22;4900625;29;20036;-76
2022/01/04 07:09:05;;;;;;;21.42;9.90;;;;;;;6.88;100.00;99609.44;4888224;29;20440;-75
2022/01/04 07:11:31;;;;;;;20.17;9.70;;;;;;;6.94;100.00;99608.06;4920239;29;20122;-75
2022/01/04 07:13:56;;;;;;;27.45;10.90;;;;;;;6.88;100.00;99596.09;4904534;29;20032;-76
2022/01/04 07:16:22;;;;;;;24.20;12.25;;;;;;;6.90;100.00;99600.31;4890407;29;20396;-74
2022/01/04 07:18:49;;;;;;;25.25;11.25;;;;;;;6.96;100.00;99595.44;4902974;29;20039;-75
2022/01/04 07:21:15;;;;;;;30.20;13.57;;;;;;;7.01;100.00;99602.09;4905663;29;20330;-74
2022/01/04 07:23:41;;;;;;;20.27;9.13;;;;;;;6.96;100.00;99600.78;4905323;29;20032;-74
2022/01/04 07:26:06;;;;;;;25.67;9.68;;;;;;;6.83;100.00;99596.44;4900472;29;20024;-74
2022/01/04 07:28:32;;;;;;;26.33;11.60;;;;;;;6.93;100.00;99585.03;4892630;29;20046;-75
2022/01/04 07:30:57;;;;;;;22.55;10.68;;;;;;;6.97;100.00;99591.81;4923462;29;20483;-75
2022/01/04 07:33:22;;;;;;;26.13;11.55;;;;;;;6.98;100.00;99588.16;4886504;29;20475;-74
2022/01/04 07:35:48;;;;;;;22.98;12.52;;;;;;;6.85;100.00;99573.16;4920227;29;20039;-74
2022/01/04 07:38:13;;;;;;;26.08;10.93;;;;;;;6.95;100.00;99572.41;4906896;29;20468;-74
2022/01/04 07:40:38;;;;;;;34.28;15.45;;;;;;;7.00;100.00;99551.53;4888318;29;20381;-74
2022/01/04 07:43:03;;;;;;;22.85;9.43;;;;;;;7.08;100.00;99543.69;4902776;29;20122;-73
2022/01/04 07:45:30;;;;;;;25.50;12.85;;;;;;;7.16;100.00;99562.59;4889257;29;20171;-74
2022/01/04 07:47:56;;;;;;;31.52;12.05;;;;;;;7.05;100.00;99568.84;4927650;29;20020;-74
2022/01/04 07:50:22;;;;;;;26.25;11.82;;;;;;;6.95;100.00;99556.41;4894471;29;20423;-74
2022/01/04 07:52:47;;;;;;;28.02;12.10;;;;;;;6.82;100.00;99565.41;4910860;29;20023;-75
2022/01/04 07:55:12;;;;;;;29.45;13.57;;;;;;;6.84;100.00;99563.47;4904127;29;20118;-75
2022/01/04 07:57:40;;;;;;;25.70;10.68;;;;;;;6.86;100.00;99572.19;4893766;29;20119;-75
2022/01/04 08:00:06;;;;;;;26.95;10.98;;;;;;;6.99;100.00;99573.84;4922348;29;20055;-74
2022/01/04 08:02:32;;;;;;;29.98;12.43;;;;;;;6.93;100.00;99582.34;4891373;29;20032;-74
2022/01/04 08:04:57;;;;;;;28.05;11.70;;;;;;;6.80;100.00;99563.84;4909251;29;20440;-74
2022/01/04 08:07:22;;;;;;;28.67;10.75;;;;;;;6.83;100.00;99571.59;4907532;29;20045;-74
2022/01/04 08:09:47;;;;;;;25.73;11.80;;;;;;;6.81;100.00;99576.22;4924285;29;20039;-74
2022/01/04 08:12:14;;;;;;;27.55;11.48;;;;;;;6.79;100.00;99562.16;4898283;29;20050;-75
2022/01/04 08:14:39;;;;;;;31.58;14.38;;;;;;;6.81;100.00;99570.88;4889422;29;20031;-75
2022/01/04 08:17:04;;;;;;;33.45;16.30;;;;;;;7.07;100.00;99555.34;4915319;29;20297;-74
2022/01/04 08:19:30;;;;;;;32.40;12.32;;;;;;;7.09;100.00;99564.09;4920659;29;20498;-70
2022/01/04 08:21:55;;;;;;;29.27;12.70;;;;;;;6.92;100.00;99560.16;4927012;29;20046;-74
2022/01/04 08:24:20;;;;;;;28.27;12.50;;;;;;;6.86;100.00;99571.34;4902917;29;20476;-74
2022/01/04 08:26:46;;;;;;;29.33;11.25;;;;;;;6.90;100.00;99576.28;4908797;29;20035;-74
2022/01/04 08:29:11;;;;;;;29.98;12.40;;;;;;;6.95;100.00;99581.25;4908858;29;20031;-75
2022/01/04 08:31:36;;;;;;;26.58;11.82;;;;;;;6.94;100.00;99592.06;4904069;29;20261;-74
2022/01/04 08:34:02;;;;;;;37.88;13.45;;;;;;;6.86;100.00;99564.19;4904698;29;20058;-75
2022/01/04 08:36:28;;;;;;;34.47;11.88;;;;;;;7.01;100.00;99564.72;4907572;29;20151;-74
2022/01/04 08:38:55;;;;;;;32.30;13.52;;;;;;;6.98;100.00;99581.00;4922596;29;20487;-75
2022/01/04 08:41:20;;;;;;;31.88;13.55;;;;;;;6.95;100.00;99570.56;4926278;29;20134;-75
2022/01/04 08:43:46;;;;;;;33.67;13.02;;;;;;;6.96;100.00;99595.44;4918904;29;20559;-74
2022/01/04 08:46:12;;;;;;;34.38;14.02;;;;;;;7.14;100.00;99599.25;4905837;29;20486;-75
2022/01/04 08:48:37;;;;;;;41.47;20.45;;;;;;;7.20;100.00;99593.41;4924041;29;20039;-75
2022/01/04 08:51:02;;;;;;;41.47;19.23;;;;;;;7.18;100.00;99589.16;4924958;29;20498;-75
2022/01/04 08:53:28;;;;;;;38.22;15.18;;;;;;;7.15;100.00;99592.94;4919540;29;20032;-74
2022/01/04 08:55:53;;;;;;;41.72;21.67;;;;;;;7.18;100.00;99595.34;4906945;29;20483;-75
2022/01/04 08:58:20;;;;;;;40.72;16.50;;;;;;;7.09;100.00;99600.63;4904866;29;20468;-74
2022/01/04 09:00:46;;;;;;;39.22;15.85;;;;;;;7.04;100.00;99595.63;4901151;29;20034;-74
2022/01/04 09:03:11;;;;;;;42.72;19.35;;;;;;;7.21;100.00;99599.56;4922001;29;20023;-72
2022/01/04 09:05:36;;;;;;;39.85;15.55;;;;;;;7.10;100.00;99599.66;4912610;29;20528;-74
2022/01/04 09:08:02;;;;;;;34.80;14.05;;;;;;;7.06;100.00;99593.69;4921362;29;20170;-74
2022/01/04 09:10:27;;;;;;;36.72;16.52;;;;;;;7.20;100.00;99596.06;4909777;29;20027;-75
2022/01/04 09:13:00;;;;;;;39.38;17.98;;;;;;;7.13;100.00;99600.22;4906949;29;20040;-75
2022/01/04 09:15:32;;;;;;;38.67;18.35;;;;;;;7.26;100.00;99604.56;4894566;29;20039;-74
2022/01/04 09:20:46;;;;;;;40.58;16.95;;;;;;;7.18;100.00;99590.00;4907468;29;20051;-76
2022/01/04 09:23:15;;;;;;;35.83;16.45;;;;;;;7.33;100.00;99593.22;4907706;29;20037;-75
2022/01/04 09:25:41;;;;;;;38.53;15.68;;;;;;;7.15;100.00;99571.59;4890911;29;20030;-76
2022/01/04 09:28:06;;;;;;;41.72;16.15;;;;;;;7.22;100.00;99576.41;4906996;29;20031;-75
2022/01/04 09:30:31;;;;;;;42.80;20.50;;;;;;;7.27;100.00;99587.56;4926455;29;20032;-75
2022/01/04 09:32:57;;;;;;;38.78;16.13;;;;;;;7.31;100.00;99581.81;4888840;29;20032;-75
2022/01/04 09:35:22;;;;;;;42.50;21.95;;;;;;;7.26;100.00;99591.19;4907707;29;20032;-76
2022/01/04 09:37:47;;;;;;;41.53;17.83;;;;;;;7.34;100.00;99604.72;4908585;29;20043;-75
2022/01/04 09:40:13;;;;;;;40.00;14.95;;;;;;;7.40;100.00;99609.56;4907733;29;20028;-75
2022/01/04 09:42:38;;;;;;;48.10;18.73;;;;;;;7.41;100.00;99610.44;4905177;29;20058;-73
2022/01/04 09:45:05;;;;;;;46.10;17.67;;;;;;;7.38;100.00;99608.84;4926105;29;20114;-75
2022/01/04 09:47:30;;;;;;;42.80;17.20;;;;;;;7.31;100.00;99599.66;4886779;29;20456;-75
2022/01/04 09:49:57;;;;;;;44.20;18.90;;;;;;;7.41;100.00;99610.44;4912209;29;20107;-75
2022/01/04 09:52:23;;;;;;;40.15;15.32;;;;;;;7.53;100.00;99614.72;4899804;29;20035;-71
2022/01/04 09:54:53;;;;;;;50.47;21.13;;;;;;;7.47;100.00;99613.41;4904468;29;20057;-75
2022/01/04 09:57:18;;;;;;;46.08;22.35;;;;;;;7.34;100.00;99597.59;4893670;29;20051;-75
2022/01/04 09:59:44;;;;;;;48.45;20.00;;;;;;;7.44;100.00;99592.31;4908427;29;20133;-77
2022/01/04 10:02:14;;;;;;;49.30;22.75;;;;;;;7.39;100.00;99599.84;4904971;29;20111;-76
2022/01/04 10:04:39;;;;;;;51.05;20.77;;;;;;;7.37;100.00;99593.81;4895774;29;20415;-75
2022/01/04 10:07:07;;;;;;;51.17;24.83;;;;;;;7.42;100.00;99577.38;4921874;29;20042;-75
2022/01/04 10:09:39;;;;;;;43.00;18.05;;;;;;;7.31;100.00;99572.94;4887740;29;20043;-73
2022/01/04 10:12:10;;;;;;;48.72;22.05;;;;;;;7.41;100.00;99587.22;4920334;29;20027;-75
2022/01/04 10:14:40;;;;;;;57.65;28.00;;;;;;;7.36;100.00;99578.75;4905900;29;20041;-75
2022/01/04 10:17:08;;;;;;;61.13;25.02;;;;;;;7.30;100.00;99576.59;4924707;29;20028;-74
2022/01/04 10:19:37;;;;;;;52.13;21.60;;;;;;;7.27;100.00;99585.72;4909916;29;20499;-75
2022/01/04 10:22:18;;;;;;;62.17;24.80;;;;;;;7.15;100.00;99584.94;4906169;29;20099;-77
2022/01/04 10:24:46;;;;;;;53.05;22.92;;;;;;;7.09;100.00;99569.41;4925037;29;20400;-75
2022/01/04 10:27:37;;;;;;;56.38;23.85;;;;;;;7.18;100.00;99562.47;4905454;29;20038;-75
2022/01/04 10:30:20;;;;;;;58.38;22.48;;;;;;;7.13;100.00;99560.19;4908890;29;20051;-75
2022/01/04 10:32:46;;;;;;;64.45;23.95;;;;;;;7.11;100.00;99563.97;4928567;29;20079;-74
2022/01/04 10:35:19;;;;;;;55.95;19.38;;;;;;;7.20;100.00;99560.50;4908383;29;20028;-74
2022/01/04 10:37:44;;;;;;;65.47;27.20;;;;;;;7.17;100.00;99564.28;4930567;29;20035;-75
2022/01/04 10:40:10;;;;;;;59.03;22.35;;;;;;;7.26;100.00;99570.69;4924984;29;20040;-75
2022/01/04 10:42:36;;;;;;;55.58;21.52;;;;;;;7.23;100.00;99546.06;4923225;29;20496;-74
2022/01/04 10:45:21;;;;;;;57.30;22.30;;;;;;;7.16;100.00;99548.38;4903372;29;20056;-74
2022/01/04 10:47:46;;;;;;;56.53;22.35;;;;;;;7.25;100.00;99549.47;4905604;29;20729;-74
2022/01/04 10:50:11;;;;;;;61.03;22.10;;;;;;;7.24;100.00;99556.59;4893817;29;20032;-74
2022/01/04 10:52:36;;;;;;;51.10;20.40;;;;;;;7.29;100.00;99550.88;4909488;29;20059;-73
2022/01/04 10:55:14;;;;;;;48.17;18.45;;;;;;;7.30;100.00;99555.22;4895317;29;20039;-74
2022/01/04 10:57:40;;;;;;;46.22;18.33;;;;;;;7.40;100.00;99553.50;4885950;29;20548;-73
2022/01/04 11:00:16;;;;;;;53.78;20.40;;;;;;;7.40;100.00;99564.16;4907295;29;20067;-74
2022/01/04 11:02:41;;;;;;;52.55;19.42;;;;;;;7.48;100.00;99556.34;4904364;29;20406;-74
2022/01/04 11:05:21;;;;;;;55.38;20.92;;;;;;;7.54;100.00;99554.97;4895832;29;20035;-74
2022/01/04 11:08:00;;;;;;;43.92;18.27;;;;;;;7.51;100.00;99560.56;4891646;29;20369;-75
2022/01/04 11:10:28;;;;;;;46.88;20.08;;;;;;;7.55;100.00;99574.53;4890861;29;20060;-75
2022/01/04 11:12:55;;;;;;;45.42;18.23;;;;;;;7.55;100.00;99558.50;4897052;29;20425;-75
2022/01/04 11:15:21;;;;;;;47.15;17.42;;;;;;;7.53;100.00;99571.16;4888888;29;20028;-74
2022/01/04 11:17:46;;;;;;;49.22;20.95;;;;;;;7.47;100.00;99567.16;4895228;29;20264;-74
2022/01/04 11:20:12;;;;;;;55.22;23.90;;;;;;;7.45;100.00;99558.44;4909699;29;20039;-74
2022/01/04 11:22:45;;;;;;;42.38;17.13;;;;;;;7.45;100.00;99558.44;4892864;29;20027;-74